Silver Lake, Missouri
Current Conditions -  °F | °C
As of 2:15 PM on Wednesday 26 Nov 2014 (Local Time) from KFAM Reporting Station
Overcast Overcast  
Wind Chill: 28°   Ceiling: 400
Heat Index: 34°   Visibility: 1.5mi
Dew Point: 32°   Wind: 7mph
Humidity: 93%   Direction: 160°SSE
Pressure: 29.96"   Gusts: NA
Location:  37.7127°N, 89.8903°W
Report Text: KFAM 262015Z AUTO 16006KT 1 1/2SM BKN004 OVC016 01/00 A2996 RMK AO1
Loading
Personal Weather Stations






























Interactive Weather Map New forecast layout! Learn more

10-Day Weather Forecast

Advertisements
Track Severe Weather on mobile